sensor_id;sensor_type;location;lat;lon;timestamp;pressure;altitude;pressure_sealevel;temperature
64960;BMP180;51487;52.266;10.542;2023-03-13T00:03:46;99525.00;;;7.40
64960;BMP180;51487;52.266;10.542;2023-03-13T00:06:13;99513.00;;;7.40
64960;BMP180;51487;52.266;10.542;2023-03-13T00:08:39;99506.00;;;7.40
64960;BMP180;51487;52.266;10.542;2023-03-13T00:11:06;99498.00;;;7.40
64960;BMP180;51487;52.266;10.542;2023-03-13T00:13:33;99495.00;;;7.40
64960;BMP180;51487;52.266;10.542;2023-03-13T00:16:04;99503.00;;;7.50
64960;BMP180;51487;52.266;10.542;2023-03-13T00:18:32;99500.00;;;7.50
64960;BMP180;51487;52.266;10.542;2023-03-13T00:21:07;99498.00;;;7.50
64960;BMP180;51487;52.266;10.542;2023-03-13T00:23:36;99500.00;;;7.50
64960;BMP180;51487;52.266;10.542;2023-03-13T00:26:05;99501.00;;;7.50
64960;BMP180;51487;52.266;10.542;2023-03-13T00:28:37;99485.00;;;7.50
64960;BMP180;51487;52.266;10.542;2023-03-13T00:34:00;99483.00;;;7.50
64960;BMP180;51487;52.266;10.542;2023-03-13T00:36:29;99486.00;;;7.60
64960;BMP180;51487;52.266;10.542;2023-03-13T00:38:57;99479.00;;;7.50
64960;BMP180;51487;52.266;10.542;2023-03-13T00:41:26;99475.00;;;7.50
64960;BMP180;51487;52.266;10.542;2023-03-13T00:43:54;99480.00;;;7.50
64960;BMP180;51487;52.266;10.542;2023-03-13T00:46:22;99473.00;;;7.50
64960;BMP180;51487;52.266;10.542;2023-03-13T00:48:49;99469.00;;;7.60
64960;BMP180;51487;52.266;10.542;2023-03-13T00:51:17;99454.00;;;7.50
64960;BMP180;51487;52.266;10.542;2023-03-13T00:53:44;99459.00;;;7.60
64960;BMP180;51487;52.266;10.542;2023-03-13T00:56:12;99453.00;;;7.60
64960;BMP180;51487;52.266;10.542;2023-03-13T00:58:40;99455.00;;;7.60
64960;BMP180;51487;52.266;10.542;2023-03-13T01:01:09;99456.00;;;7.70
64960;BMP180;51487;52.266;10.542;2023-03-13T01:03:38;99446.00;;;7.80
64960;BMP180;51487;52.266;10.542;2023-03-13T01:06:07;99438.00;;;7.70
64960;BMP180;51487;52.266;10.542;2023-03-13T01:08:34;99440.00;;;7.70
64960;BMP180;51487;52.266;10.542;2023-03-13T01:11:02;99440.00;;;7.70
64960;BMP180;51487;52.266;10.542;2023-03-13T01:13:31;99426.00;;;7.70
64960;BMP180;51487;52.266;10.542;2023-03-13T01:16:04;99431.00;;;7.70
64960;BMP180;51487;52.266;10.542;2023-03-13T01:18:33;99433.00;;;7.70
64960;BMP180;51487;52.266;10.542;2023-03-13T01:20:59;99418.00;;;7.70
64960;BMP180;51487;52.266;10.542;2023-03-13T01:23:25;99423.00;;;7.70
64960;BMP180;51487;52.266;10.542;2023-03-13T01:25:53;99421.00;;;7.70
64960;BMP180;51487;52.266;10.542;2023-03-13T01:28:20;99411.00;;;7.70
64960;BMP180;51487;52.266;10.542;2023-03-13T01:30:46;99415.00;;;7.70
64960;BMP180;51487;52.266;10.542;2023-03-13T01:33:12;99408.00;;;7.70
64960;BMP180;51487;52.266;10.542;2023-03-13T01:35:37;99403.00;;;7.70
64960;BMP180;51487;52.266;10.542;2023-03-13T01:38:03;99397.00;;;7.70
64960;BMP180;51487;52.266;10.542;2023-03-13T01:40:29;99401.00;;;7.80
64960;BMP180;51487;52.266;10.542;2023-03-13T01:42:57;99390.00;;;7.80
64960;BMP180;51487;52.266;10.542;2023-03-13T01:49:26;99391.00;;;7.80
64960;BMP180;51487;52.266;10.542;2023-03-13T01:52:00;99382.00;;;7.80
64960;BMP180;51487;52.266;10.542;2023-03-13T01:54:36;99384.00;;;7.80
64960;BMP180;51487;52.266;10.542;2023-03-13T01:57:23;99371.00;;;7.80
64960;BMP180;51487;52.266;10.542;2023-03-13T02:00:05;99370.00;;;7.80
64960;BMP180;51487;52.266;10.542;2023-03-13T02:02:44;99365.00;;;7.80
64960;BMP180;51487;52.266;10.542;2023-03-13T02:05:14;99359.00;;;7.80
64960;BMP180;51487;52.266;10.542;2023-03-13T02:07:56;99361.00;;;7.80
64960;BMP180;51487;52.266;10.542;2023-03-13T02:10:24;99351.00;;;7.80
64960;BMP180;51487;52.266;10.542;2023-03-13T02:12:51;99337.00;;;7.80
64960;BMP180;51487;52.266;10.542;2023-03-13T02:15:19;99329.00;;;7.90
64960;BMP180;51487;52.266;10.542;2023-03-13T02:17:47;99322.00;;;7.90
64960;BMP180;51487;52.266;10.542;2023-03-13T02:20:16;99321.00;;;7.90
64960;BMP180;51487;52.266;10.542;2023-03-13T02:27:51;99295.00;;;7.90
64960;BMP180;51487;52.266;10.542;2023-03-13T02:30:22;99291.00;;;7.90
64960;BMP180;51487;52.266;10.542;2023-03-13T02:32:48;99288.00;;;7.90
64960;BMP180;51487;52.266;10.542;2023-03-13T02:35:16;99269.00;;;8.00
64960;BMP180;51487;52.266;10.542;2023-03-13T02:37:46;99281.00;;;7.90
64960;BMP180;51487;52.266;10.542;2023-03-13T02:40:20;99278.00;;;7.90
64960;BMP180;51487;52.266;10.542;2023-03-13T02:42:49;99280.00;;;7.80
64960;BMP180;51487;52.266;10.542;2023-03-13T02:45:16;99268.00;;;7.80
64960;BMP180;51487;52.266;10.542;2023-03-13T02:47:42;99266.00;;;7.80
64960;BMP180;51487;52.266;10.542;2023-03-13T02:50:09;99271.00;;;7.80
64960;BMP180;51487;52.266;10.542;2023-03-13T02:52:37;99263.00;;;7.70
64960;BMP180;51487;52.266;10.542;2023-03-13T02:55:11;99258.00;;;7.70
64960;BMP180;51487;52.266;10.542;2023-03-13T02:57:46;99256.00;;;7.80
64960;BMP180;51487;52.266;10.542;2023-03-13T03:00:13;99258.00;;;7.80
64960;BMP180;51487;52.266;10.542;2023-03-13T03:02:43;99255.00;;;7.80
64960;BMP180;51487;52.266;10.542;2023-03-13T03:05:09;99246.00;;;7.80
64960;BMP180;51487;52.266;10.542;2023-03-13T03:07:36;99253.00;;;7.70
64960;BMP180;51487;52.266;10.542;2023-03-13T03:10:01;99246.00;;;7.70
64960;BMP180;51487;52.266;10.542;2023-03-13T03:12:27;99236.00;;;7.60
64960;BMP180;51487;52.266;10.542;2023-03-13T03:14:53;99236.00;;;7.60
64960;BMP180;51487;52.266;10.542;2023-03-13T03:17:18;99227.00;;;7.70
64960;BMP180;51487;52.266;10.542;2023-03-13T03:19:44;99219.00;;;7.70
64960;BMP180;51487;52.266;10.542;2023-03-13T03:22:09;99211.00;;;7.70
64960;BMP180;51487;52.266;10.542;2023-03-13T03:24:35;99207.00;;;7.70
64960;BMP180;51487;52.266;10.542;2023-03-13T03:27:00;99196.00;;;7.70
64960;BMP180;51487;52.266;10.542;2023-03-13T03:29:26;99192.00;;;7.80
64960;BMP180;51487;52.266;10.542;2023-03-13T03:31:52;99192.00;;;7.70
64960;BMP180;51487;52.266;10.542;2023-03-13T03:34:18;99183.00;;;7.70
64960;BMP180;51487;52.266;10.542;2023-03-13T03:36:44;99176.00;;;7.80
64960;BMP180;51487;52.266;10.542;2023-03-13T03:39:09;99169.00;;;7.70
64960;BMP180;51487;52.266;10.542;2023-03-13T03:41:35;99175.00;;;7.80
64960;BMP180;51487;52.266;10.542;2023-03-13T03:44:02;99159.00;;;7.80
64960;BMP180;51487;52.266;10.542;2023-03-13T03:46:28;99153.00;;;7.70
64960;BMP180;51487;52.266;10.542;2023-03-13T03:48:54;99149.00;;;7.80
64960;BMP180;51487;52.266;10.542;2023-03-13T03:51:20;99129.00;;;7.80
64960;BMP180;51487;52.266;10.542;2023-03-13T03:53:45;99124.00;;;7.70
64960;BMP180;51487;52.266;10.542;2023-03-13T03:56:11;99113.00;;;7.70
64960;BMP180;51487;52.266;10.542;2023-03-13T03:58:37;99098.00;;;7.80
64960;BMP180;51487;52.266;10.542;2023-03-13T04:01:03;99095.00;;;7.70
64960;BMP180;51487;52.266;10.542;2023-03-13T04:03:29;99083.00;;;7.70
64960;BMP180;51487;52.266;10.542;2023-03-13T04:05:54;99085.00;;;7.60
64960;BMP180;51487;52.266;10.542;2023-03-13T04:08:20;99081.00;;;7.60
64960;BMP180;51487;52.266;10.542;2023-03-13T04:10:46;99084.00;;;7.70
64960;BMP180;51487;52.266;10.542;2023-03-13T04:13:12;99073.00;;;7.80
64960;BMP180;51487;52.266;10.542;2023-03-13T04:15:39;99064.00;;;7.70
64960;BMP180;51487;52.266;10.542;2023-03-13T04:18:05;99062.00;;;7.70
64960;BMP180;51487;52.266;10.542;2023-03-13T04:20:31;99056.00;;;7.70
64960;BMP180;51487;52.266;10.542;2023-03-13T04:22:57;99060.00;;;7.80
64960;BMP180;51487;52.266;10.542;2023-03-13T04:25:23;99055.00;;;7.80
64960;BMP180;51487;52.266;10.542;2023-03-13T04:27:48;99040.00;;;7.70
64960;BMP180;51487;52.266;10.542;2023-03-13T04:30:14;99039.00;;;7.60
64960;BMP180;51487;52.266;10.542;2023-03-13T04:32:40;99035.00;;;7.60
64960;BMP180;51487;52.266;10.542;2023-03-13T04:35:06;99029.00;;;7.70
64960;BMP180;51487;52.266;10.542;2023-03-13T04:37:32;99023.00;;;7.70
64960;BMP180;51487;52.266;10.542;2023-03-13T04:39:57;99022.00;;;7.70
64960;BMP180;51487;52.266;10.542;2023-03-13T04:42:23;99021.00;;;7.70
64960;BMP180;51487;52.266;10.542;2023-03-13T04:44:49;99014.00;;;7.60
64960;BMP180;51487;52.266;10.542;2023-03-13T04:47:14;99012.00;;;7.70
64960;BMP180;51487;52.266;10.542;2023-03-13T04:49:39;99010.00;;;7.70
64960;BMP180;51487;52.266;10.542;2023-03-13T04:52:05;99011.00;;;7.70
64960;BMP180;51487;52.266;10.542;2023-03-13T04:54:31;99003.00;;;7.60
64960;BMP180;51487;52.266;10.542;2023-03-13T04:56:57;99013.00;;;7.60
64960;BMP180;51487;52.266;10.542;2023-03-13T04:59:22;98997.00;;;7.70
64960;BMP180;51487;52.266;10.542;2023-03-13T05:01:48;98991.00;;;7.60
64960;BMP180;51487;52.266;10.542;2023-03-13T05:04:13;98982.00;;;7.60
64960;BMP180;51487;52.266;10.542;2023-03-13T05:06:39;98972.00;;;7.70
64960;BMP180;51487;52.266;10.542;2023-03-13T05:09:05;98967.00;;;7.70
64960;BMP180;51487;52.266;10.542;2023-03-13T05:11:31;98957.00;;;7.60
64960;BMP180;51487;52.266;10.542;2023-03-13T05:13:57;98960.00;;;7.70
64960;BMP180;51487;52.266;10.542;2023-03-13T05:16:22;98962.00;;;7.60
64960;BMP180;51487;52.266;10.542;2023-03-13T05:18:48;98956.00;;;7.70
64960;BMP180;51487;52.266;10.542;2023-03-13T05:21:13;98956.00;;;7.70
64960;BMP180;51487;52.266;10.542;2023-03-13T05:23:39;98947.00;;;7.70
64960;BMP180;51487;52.266;10.542;2023-03-13T05:26:04;98943.00;;;7.80
64960;BMP180;51487;52.266;10.542;2023-03-13T05:28:30;98933.00;;;7.80
64960;BMP180;51487;52.266;10.542;2023-03-13T05:30:56;98928.00;;;7.80
64960;BMP180;51487;52.266;10.542;2023-03-13T05:33:21;98918.00;;;7.90
64960;BMP180;51487;52.266;10.542;2023-03-13T05:35:47;98910.00;;;7.90
64960;BMP180;51487;52.266;10.542;2023-03-13T05:38:13;98907.00;;;8.00
64960;BMP180;51487;52.266;10.542;2023-03-13T05:40:39;98900.00;;;7.90
64960;BMP180;51487;52.266;10.542;2023-03-13T05:43:05;98911.00;;;8.00
64960;BMP180;51487;52.266;10.542;2023-03-13T05:45:32;98903.00;;;8.10
64960;BMP180;51487;52.266;10.542;2023-03-13T05:47:57;98905.00;;;8.10
64960;BMP180;51487;52.266;10.542;2023-03-13T05:50:26;98903.00;;;8.20
64960;BMP180;51487;52.266;10.542;2023-03-13T05:52:51;98893.00;;;8.30
64960;BMP180;51487;52.266;10.542;2023-03-13T05:55:18;98893.00;;;8.30
64960;BMP180;51487;52.266;10.542;2023-03-13T05:57:45;98897.00;;;8.20
64960;BMP180;51487;52.266;10.542;2023-03-13T06:00:15;98889.00;;;8.30
64960;BMP180;51487;52.266;10.542;2023-03-13T06:02:41;98893.00;;;8.30
64960;BMP180;51487;52.266;10.542;2023-03-13T06:05:08;98885.00;;;8.30
64960;BMP180;51487;52.266;10.542;2023-03-13T06:07:34;98868.00;;;8.40
64960;BMP180;51487;52.266;10.542;2023-03-13T06:10:00;98887.00;;;8.40
64960;BMP180;51487;52.266;10.542;2023-03-13T06:12:26;98872.00;;;8.30
64960;BMP180;51487;52.266;10.542;2023-03-13T06:14:51;98869.00;;;8.30
64960;BMP180;51487;52.266;10.542;2023-03-13T06:17:17;98869.00;;;8.30
64960;BMP180;51487;52.266;10.542;2023-03-13T06:19:42;98859.00;;;8.50
64960;BMP180;51487;52.266;10.542;2023-03-13T06:22:08;98864.00;;;8.50
64960;BMP180;51487;52.266;10.542;2023-03-13T06:24:34;98863.00;;;8.50
64960;BMP180;51487;52.266;10.542;2023-03-13T06:27:00;98867.00;;;8.50
64960;BMP180;51487;52.266;10.542;2023-03-13T06:29:26;98868.00;;;8.60
64960;BMP180;51487;52.266;10.542;2023-03-13T06:31:51;98869.00;;;8.60
64960;BMP180;51487;52.266;10.542;2023-03-13T06:34:17;98862.00;;;8.70
64960;BMP180;51487;52.266;10.542;2023-03-13T06:36:43;98852.00;;;8.60
64960;BMP180;51487;52.266;10.542;2023-03-13T06:39:10;98860.00;;;8.70
64960;BMP180;51487;52.266;10.542;2023-03-13T06:41:36;98856.00;;;8.70
64960;BMP180;51487;52.266;10.542;2023-03-13T06:44:03;98850.00;;;8.80
64960;BMP180;51487;52.266;10.542;2023-03-13T06:46:29;98856.00;;;8.90
64960;BMP180;51487;52.266;10.542;2023-03-13T06:48:57;98847.00;;;8.80
64960;BMP180;51487;52.266;10.542;2023-03-13T06:51:23;98839.00;;;8.90
64960;BMP180;51487;52.266;10.542;2023-03-13T06:53:50;98841.00;;;8.90
64960;BMP180;51487;52.266;10.542;2023-03-13T06:56:16;98838.00;;;9.00
64960;BMP180;51487;52.266;10.542;2023-03-13T06:58:46;98847.00;;;9.00
64960;BMP180;51487;52.266;10.542;2023-03-13T07:01:13;98853.00;;;9.00
64960;BMP180;51487;52.266;10.542;2023-03-13T07:03:40;98843.00;;;9.10
64960;BMP180;51487;52.266;10.542;2023-03-13T07:06:07;98848.00;;;9.20
64960;BMP180;51487;52.266;10.542;2023-03-13T07:08:45;98833.00;;;9.20
64960;BMP180;51487;52.266;10.542;2023-03-13T07:11:12;98824.00;;;9.20
64960;BMP180;51487;52.266;10.542;2023-03-13T07:13:41;98835.00;;;9.20
64960;BMP180;51487;52.266;10.542;2023-03-13T07:16:09;98818.00;;;9.20
64960;BMP180;51487;52.266;10.542;2023-03-13T07:18:36;98823.00;;;9.20
64960;BMP180;51487;52.266;10.542;2023-03-13T07:21:03;98823.00;;;9.30
64960;BMP180;51487;52.266;10.542;2023-03-13T07:23:29;98811.00;;;9.20
64960;BMP180;51487;52.266;10.542;2023-03-13T07:26:01;98805.00;;;9.30
64960;BMP180;51487;52.266;10.542;2023-03-13T07:28:28;98820.00;;;9.30
64960;BMP180;51487;52.266;10.542;2023-03-13T07:31:03;98809.00;;;9.30
64960;BMP180;51487;52.266;10.542;2023-03-13T07:33:31;98800.00;;;9.40
64960;BMP180;51487;52.266;10.542;2023-03-13T07:35:56;98799.00;;;9.40
64960;BMP180;51487;52.266;10.542;2023-03-13T07:38:22;98796.00;;;9.40
64960;BMP180;51487;52.266;10.542;2023-03-13T07:40:52;98796.00;;;9.40
64960;BMP180;51487;52.266;10.542;2023-03-13T07:43:19;98769.00;;;9.40
64960;BMP180;51487;52.266;10.542;2023-03-13T07:45:53;98785.00;;;9.50
64960;BMP180;51487;52.266;10.542;2023-03-13T07:48:45;98773.00;;;9.60
64960;BMP180;51487;52.266;10.542;2023-03-13T07:51:16;98784.00;;;9.60
64960;BMP180;51487;52.266;10.542;2023-03-13T07:53:44;98798.00;;;9.70
64960;BMP180;51487;52.266;10.542;2023-03-13T07:56:16;98791.00;;;9.80
64960;BMP180;51487;52.266;10.542;2023-03-13T07:58:43;98791.00;;;10.00
64960;BMP180;51487;52.266;10.542;2023-03-13T08:01:24;98786.00;;;10.00
64960;BMP180;51487;52.266;10.542;2023-03-13T08:03:51;98785.00;;;10.10
64960;BMP180;51487;52.266;10.542;2023-03-13T08:06:20;98784.00;;;10.00
64960;BMP180;51487;52.266;10.542;2023-03-13T08:08:50;98788.00;;;10.00
64960;BMP180;51487;52.266;10.542;2023-03-13T08:11:22;98787.00;;;10.00
64960;BMP180;51487;52.266;10.542;2023-03-13T08:13:50;98801.00;;;10.00
64960;BMP180;51487;52.266;10.542;2023-03-13T08:16:21;98803.00;;;10.10
64960;BMP180;51487;52.266;10.542;2023-03-13T08:18:50;98804.00;;;10.10
64960;BMP180;51487;52.266;10.542;2023-03-13T08:21:20;98804.00;;;10.20
64960;BMP180;51487;52.266;10.542;2023-03-13T08:23:55;98819.00;;;10.20
64960;BMP180;51487;52.266;10.542;2023-03-13T08:26:24;98828.00;;;10.30
64960;BMP180;51487;52.266;10.542;2023-03-13T08:28:53;98818.00;;;10.30
64960;BMP180;51487;52.266;10.542;2023-03-13T08:31:32;98826.00;;;10.20
64960;BMP180;51487;52.266;10.542;2023-03-13T08:34:00;98831.00;;;10.30
64960;BMP180;51487;52.266;10.542;2023-03-13T08:36:31;98831.00;;;10.30
64960;BMP180;51487;52.266;10.542;2023-03-13T08:39:00;98823.00;;;10.20
64960;BMP180;51487;52.266;10.542;2023-03-13T08:41:32;98827.00;;;10.30
64960;BMP180;51487;52.266;10.542;2023-03-13T08:44:00;98826.00;;;10.20
64960;BMP180;51487;52.266;10.542;2023-03-13T08:46:31;98818.00;;;10.50
64960;BMP180;51487;52.266;10.542;2023-03-13T08:48:58;98826.00;;;10.30
64960;BMP180;51487;52.266;10.542;2023-03-13T08:51:25;98819.00;;;10.40
64960;BMP180;51487;52.266;10.542;2023-03-13T08:53:53;98811.00;;;10.30
64960;BMP180;51487;52.266;10.542;2023-03-13T08:56:21;98813.00;;;10.40
64960;BMP180;51487;52.266;10.542;2023-03-13T08:58:54;98807.00;;;10.50
64960;BMP180;51487;52.266;10.542;2023-03-13T09:01:24;98802.00;;;10.70
64960;BMP180;51487;52.266;10.542;2023-03-13T09:03:51;98779.00;;;10.80
64960;BMP180;51487;52.266;10.542;2023-03-13T09:06:17;98793.00;;;10.80
64960;BMP180;51487;52.266;10.542;2023-03-13T09:08:44;98793.00;;;10.80
64960;BMP180;51487;52.266;10.542;2023-03-13T09:11:15;98797.00;;;10.80
64960;BMP180;51487;52.266;10.542;2023-03-13T09:13:44;98785.00;;;10.80
64960;BMP180;51487;52.266;10.542;2023-03-13T09:16:19;98767.00;;;10.80
64960;BMP180;51487;52.266;10.542;2023-03-13T09:18:50;98760.00;;;10.90
64960;BMP180;51487;52.266;10.542;2023-03-13T09:21:25;98756.00;;;11.10
64960;BMP180;51487;52.266;10.542;2023-03-13T09:23:52;98751.00;;;11.30
64960;BMP180;51487;52.266;10.542;2023-03-13T09:26:19;98742.00;;;11.20
64960;BMP180;51487;52.266;10.542;2023-03-13T09:28:45;98746.00;;;11.30
64960;BMP180;51487;52.266;10.542;2023-03-13T09:31:15;98744.00;;;11.60
64960;BMP180;51487;52.266;10.542;2023-03-13T09:33:43;98731.00;;;11.60
64960;BMP180;51487;52.266;10.542;2023-03-13T09:36:10;98730.00;;;11.70
64960;BMP180;51487;52.266;10.542;2023-03-13T09:38:37;98736.00;;;11.70
64960;BMP180;51487;52.266;10.542;2023-03-13T09:41:33;98722.00;;;11.80
64960;BMP180;51487;52.266;10.542;2023-03-13T09:44:26;98716.00;;;12.10
64960;BMP180;51487;52.266;10.542;2023-03-13T09:47:14;98711.00;;;12.30
64960;BMP180;51487;52.266;10.542;2023-03-13T09:49:53;98710.00;;;12.40
64960;BMP180;51487;52.266;10.542;2023-03-13T09:52:25;98716.00;;;12.40
64960;BMP180;51487;52.266;10.542;2023-03-13T09:55:02;98705.00;;;12.40
64960;BMP180;51487;52.266;10.542;2023-03-13T09:57:41;98699.00;;;12.50
64960;BMP180;51487;52.266;10.542;2023-03-13T10:00:12;98701.00;;;12.90
64960;BMP180;51487;52.266;10.542;2023-03-13T10:02:46;98697.00;;;12.60
64960;BMP180;51487;52.266;10.542;2023-03-13T10:05:25;98687.00;;;12.70
64960;BMP180;51487;52.266;10.542;2023-03-13T10:08:22;98698.00;;;12.90
64960;BMP180;51487;52.266;10.542;2023-03-13T10:10:57;98695.00;;;12.90
64960;BMP180;51487;52.266;10.542;2023-03-13T10:14:14;98694.00;;;12.80
64960;BMP180;51487;52.266;10.542;2023-03-13T10:19:40;98691.00;;;13.00
64960;BMP180;51487;52.266;10.542;2023-03-13T10:22:14;98702.00;;;12.90
64960;BMP180;51487;52.266;10.542;2023-03-13T10:27:57;98694.00;;;12.80
64960;BMP180;51487;52.266;10.542;2023-03-13T10:30:32;98700.00;;;13.00
64960;BMP180;51487;52.266;10.542;2023-03-13T10:35:42;98708.00;;;12.60
64960;BMP180;51487;52.266;10.542;2023-03-13T10:38:14;98703.00;;;12.80
64960;BMP180;51487;52.266;10.542;2023-03-13T10:40:55;98712.00;;;12.90
64960;BMP180;51487;52.266;10.542;2023-03-13T10:43:25;98719.00;;;12.80
64960;BMP180;51487;52.266;10.542;2023-03-13T10:45:52;98714.00;;;12.80
64960;BMP180;51487;52.266;10.542;2023-03-13T10:48:23;98717.00;;;13.00
64960;BMP180;51487;52.266;10.542;2023-03-13T10:50:53;98719.00;;;12.90
64960;BMP180;51487;52.266;10.542;2023-03-13T10:55:57;98719.00;;;12.90
64960;BMP180;51487;52.266;10.542;2023-03-13T10:58:45;98713.00;;;12.90
64960;BMP180;51487;52.266;10.542;2023-03-13T11:03:55;98707.00;;;13.00
64960;BMP180;51487;52.266;10.542;2023-03-13T11:06:29;98719.00;;;13.00
64960;BMP180;51487;52.266;10.542;2023-03-13T11:09:12;98702.00;;;13.10
64960;BMP180;51487;52.266;10.542;2023-03-13T11:11:47;98710.00;;;13.10
64960;BMP180;51487;52.266;10.542;2023-03-13T11:14:33;98715.00;;;13.10
64960;BMP180;51487;52.266;10.542;2023-03-13T11:20:39;98723.00;;;13.40
64960;BMP180;51487;52.266;10.542;2023-03-13T11:26:11;98700.00;;;13.90
64960;BMP180;51487;52.266;10.542;2023-03-13T11:31:50;98698.00;;;14.00
64960;BMP180;51487;52.266;10.542;2023-03-13T11:34:28;98678.00;;;13.90
64960;BMP180;51487;52.266;10.542;2023-03-13T11:37:06;98682.00;;;13.90
64960;BMP180;51487;52.266;10.542;2023-03-13T11:42:53;98671.00;;;13.70
64960;BMP180;51487;52.266;10.542;2023-03-13T11:51:29;98663.00;;;14.20
64960;BMP180;51487;52.266;10.542;2023-03-13T12:00:23;98650.00;;;14.20
64960;BMP180;51487;52.266;10.542;2023-03-13T12:03:14;98650.00;;;14.30
64960;BMP180;51487;52.266;10.542;2023-03-13T12:05:51;98652.00;;;14.30
64960;BMP180;51487;52.266;10.542;2023-03-13T12:14:10;98647.00;;;14.30
64960;BMP180;51487;52.266;10.542;2023-03-13T12:17:11;98633.00;;;14.10
64960;BMP180;51487;52.266;10.542;2023-03-13T12:19:50;98637.00;;;14.20
64960;BMP180;51487;52.266;10.542;2023-03-13T12:25:32;98622.00;;;14.30
64960;BMP180;51487;52.266;10.542;2023-03-13T12:36:50;98628.00;;;14.60
64960;BMP180;51487;52.266;10.542;2023-03-13T12:45:18;98596.00;;;15.00
64960;BMP180;51487;52.266;10.542;2023-03-13T12:50:56;98598.00;;;15.00
64960;BMP180;51487;52.266;10.542;2023-03-13T12:54:11;98598.00;;;15.00
64960;BMP180;51487;52.266;10.542;2023-03-13T13:00:27;98591.00;;;15.10
64960;BMP180;51487;52.266;10.542;2023-03-13T13:05:57;98580.00;;;15.10
64960;BMP180;51487;52.266;10.542;2023-03-13T13:08:32;98568.00;;;15.50
64960;BMP180;51487;52.266;10.542;2023-03-13T13:11:55;98571.00;;;15.70
64960;BMP180;51487;52.266;10.542;2023-03-13T13:16:47;98562.00;;;15.40
64960;BMP180;51487;52.266;10.542;2023-03-13T13:32:36;98530.00;;;16.40
64960;BMP180;51487;52.266;10.542;2023-03-13T13:43:44;98522.00;;;16.20
64960;BMP180;51487;52.266;10.542;2023-03-13T13:46:25;98517.00;;;16.00
64960;BMP180;51487;52.266;10.542;2023-03-13T13:51:38;98513.00;;;16.00
64960;BMP180;51487;52.266;10.542;2023-03-13T13:56:40;98498.00;;;16.10
64960;BMP180;51487;52.266;10.542;2023-03-13T13:59:40;98502.00;;;15.90
64960;BMP180;51487;52.266;10.542;2023-03-13T14:04:40;98480.00;;;16.00
64960;BMP180;51487;52.266;10.542;2023-03-13T14:07:36;98480.00;;;15.90
64960;BMP180;51487;52.266;10.542;2023-03-13T14:12:53;98471.00;;;15.60
64960;BMP180;51487;52.266;10.542;2023-03-13T14:15:27;98464.00;;;15.40
64960;BMP180;51487;52.266;10.542;2023-03-13T14:20:32;98460.00;;;15.40
64960;BMP180;51487;52.266;10.542;2023-03-13T14:23:06;98462.00;;;15.50
64960;BMP180;51487;52.266;10.542;2023-03-13T14:28:23;98453.00;;;15.60
64960;BMP180;51487;52.266;10.542;2023-03-13T14:30:57;98456.00;;;15.60
64960;BMP180;51487;52.266;10.542;2023-03-13T14:33:24;98462.00;;;15.60
64960;BMP180;51487;52.266;10.542;2023-03-13T14:35:53;98459.00;;;15.60
64960;BMP180;51487;52.266;10.542;2023-03-13T14:38:24;98453.00;;;15.60
64960;BMP180;51487;52.266;10.542;2023-03-13T14:40:52;98456.00;;;15.60
64960;BMP180;51487;52.266;10.542;2023-03-13T14:43:35;98450.00;;;15.60
64960;BMP180;51487;52.266;10.542;2023-03-13T14:49:05;98459.00;;;15.50
64960;BMP180;51487;52.266;10.542;2023-03-13T14:51:37;98459.00;;;15.60
64960;BMP180;51487;52.266;10.542;2023-03-13T14:54:04;98450.00;;;15.60
64960;BMP180;51487;52.266;10.542;2023-03-13T14:56:37;98450.00;;;15.60
64960;BMP180;51487;52.266;10.542;2023-03-13T14:59:17;98470.00;;;15.70
64960;BMP180;51487;52.266;10.542;2023-03-13T15:02:13;98452.00;;;15.60
64960;BMP180;51487;52.266;10.542;2023-03-13T15:05:01;98463.00;;;15.40
64960;BMP180;51487;52.266;10.542;2023-03-13T15:10:25;98470.00;;;15.10
64960;BMP180;51487;52.266;10.542;2023-03-13T15:12:57;98460.00;;;15.00
64960;BMP180;51487;52.266;10.542;2023-03-13T15:15:23;98451.00;;;15.00
64960;BMP180;51487;52.266;10.542;2023-03-13T15:17:49;98441.00;;;15.00
64960;BMP180;51487;52.266;10.542;2023-03-13T15:20:15;98444.00;;;15.10
64960;BMP180;51487;52.266;10.542;2023-03-13T15:22:43;98429.00;;;15.10
64960;BMP180;51487;52.266;10.542;2023-03-13T15:25:18;98423.00;;;15.20
64960;BMP180;51487;52.266;10.542;2023-03-13T15:27:48;98414.00;;;15.10
64960;BMP180;51487;52.266;10.542;2023-03-13T15:30:19;98420.00;;;15.00
64960;BMP180;51487;52.266;10.542;2023-03-13T15:32:48;98402.00;;;14.90
64960;BMP180;51487;52.266;10.542;2023-03-13T15:35:29;98414.00;;;14.90
64960;BMP180;51487;52.266;10.542;2023-03-13T15:37:58;98414.00;;;14.90
64960;BMP180;51487;52.266;10.542;2023-03-13T15:40:26;98411.00;;;14.90
64960;BMP180;51487;52.266;10.542;2023-03-13T15:42:53;98397.00;;;14.80
64960;BMP180;51487;52.266;10.542;2023-03-13T15:45:20;98386.00;;;14.80
64960;BMP180;51487;52.266;10.542;2023-03-13T15:47:46;98387.00;;;14.70
64960;BMP180;51487;52.266;10.542;2023-03-13T15:50:15;98394.00;;;14.60
64960;BMP180;51487;52.266;10.542;2023-03-13T15:52:43;98373.00;;;14.50
64960;BMP180;51487;52.266;10.542;2023-03-13T15:55:10;98366.00;;;14.50
64960;BMP180;51487;52.266;10.542;2023-03-13T15:57:48;98354.00;;;14.40
64960;BMP180;51487;52.266;10.542;2023-03-13T16:02:44;98352.00;;;14.40
64960;BMP180;51487;52.266;10.542;2023-03-13T16:05:09;98360.00;;;14.40
64960;BMP180;51487;52.266;10.542;2023-03-13T16:07:35;98354.00;;;14.40
64960;BMP180;51487;52.266;10.542;2023-03-13T16:10:00;98351.00;;;14.40
64960;BMP180;51487;52.266;10.542;2023-03-13T16:12:26;98342.00;;;14.30
64960;BMP180;51487;52.266;10.542;2023-03-13T16:14:51;98345.00;;;14.30
64960;BMP180;51487;52.266;10.542;2023-03-13T16:17:19;98334.00;;;14.20
64960;BMP180;51487;52.266;10.542;2023-03-13T16:19:46;98334.00;;;14.20
64960;BMP180;51487;52.266;10.542;2023-03-13T16:22:13;98330.00;;;14.20
64960;BMP180;51487;52.266;10.542;2023-03-13T16:24:39;98328.00;;;14.30
64960;BMP180;51487;52.266;10.542;2023-03-13T16:27:31;98336.00;;;14.30
64960;BMP180;51487;52.266;10.542;2023-03-13T16:29:57;98328.00;;;14.20
64960;BMP180;51487;52.266;10.542;2023-03-13T16:32:22;98331.00;;;14.10
64960;BMP180;51487;52.266;10.542;2023-03-13T16:34:49;98340.00;;;14.00
64960;BMP180;51487;52.266;10.542;2023-03-13T16:37:16;98329.00;;;14.00